• Join FlightAware (Why Join?)
  • Login
  • US Flag 
Trick or treat! (Boo!!) 
05:46PM EDT


 

Airport Tracker/Info


-or-


 

Live Flight TrackerFlight Track Log ✈ SWA3247 ✈ 30-Jun-2013 ✈ KLAS - KALB

Flight Track Log - Related Links

Times and Time Zones

All times are in EDT time to prevent confusion due to time zone crossing. See the SWA3247 flight status page for this flight to view local times or setup timezone preferences in your user account.

Time Position Orientation Groundspeed Altitude Reporting Facility
EDT Latitude Longitude Course Direction KTS MPH feet Rate Location/Type
09:09PM 36.0772 -115.1039 92° East 205 236 3,100  Level Los Angeles Center
09:10PM 36.0742 -115.0011 92° East 255 293 4,700 1,740 Climbing Los Angeles Center
09:11PM 36.0833 -114.9050 83° East 289 333 7,100 2,340 Climbing Los Angeles Center
09:13PM 36.1025 -114.7947 78° East 298 343 9,700 1,740 Climbing Los Angeles Center
09:14PM 36.1250 -114.6528 79° East 323 372 11,400 1,680 Climbing Los Angeles Center
09:15PM 36.1458 -114.5261 78° East 365 420 13,700 2,160 Climbing Los Angeles Center
09:16PM 36.1667 -114.3997 78° East 374 430 15,900 2,220 Climbing Los Angeles Center
09:17PM 36.1878 -114.2683 79° East 384 442 18,400 2,280 Climbing Los Angeles Center
09:18PM 36.2083 -114.1353 79° East 392 451 20,700 2,040 Climbing Los Angeles Center
09:19PM 36.2514 -114.0053 68° East 404 465 22,700 1,800 Climbing Los Angeles Center
09:20PM 36.3047 -113.8442 68° East 417 480 24,500 1,500 Climbing Los Angeles Center
09:21PM 36.3506 -113.7039 68° East 433 498 25,900 1,320 Climbing Los Angeles Center
09:22PM 36.4003 -113.5608 67° East 446 513 27,300 1,260 Climbing Los Angeles Center
09:23PM 36.4492 -113.4136 68° East 457 526 28,600 1,500 Climbing Los Angeles Center
09:24PM 36.4994 -113.2564 68° East 465 535 30,400 1,620 Climbing Los Angeles Center
09:25PM 36.5469 -113.1106 68° East 461 531 32,000 1,440 Climbing Los Angeles Center
09:26PM 36.5942 -112.9647 68° East 458 527 33,400 1,380 Climbing Los Angeles Center
09:27PM 36.6514 -112.7883 68° East 459 528 34,900 720 Climbing Los Angeles Center
09:28PM 36.6983 -112.6433 68° East 457 526 35,000  Climbing Los Angeles Center
09:29PM 36.7489 -112.4986 66° East 457 526 35,000  Level Los Angeles Center
09:30PM 36.7983 -112.3547 67° East 455 524 35,000  Level Los Angeles Center
09:32PM 36.8586 -112.1794 67° East 459 528 35,000  Level Los Angeles Center
09:33PM 36.9083 -112.0325 67° East 460 529 35,000  Level Los Angeles Center
09:34PM 36.9683 -111.8589 67° East 459 528 35,000  Level Los Angeles Center
09:35PM 37.0269 -111.6850 67° East 457 526 35,000  Level Los Angeles Center
09:36PM 37.0750 -111.5392 68° East 457 526 35,000  Level Denver Center
09:37PM 37.1214 -111.3922 68° East 457 526 35,000 540 Level Denver Center
09:38PM 37.1706 -111.2450 67° East 459 528 36,200 960 Climbing Denver Center
09:39PM 37.2178 -111.0997 68° East 453 521 37,000 360 Climbing Denver Center
09:40PM 37.2731 -110.9289 68° East 443 510 37,000  Level Denver Center
09:41PM 37.3211 -110.7842 67° East 449 517 37,000  Level Denver Center
09:42PM 37.3681 -110.6369 68° East 454 522 37,000  Level Denver Center
09:43PM 37.4150 -110.4897 68° East 455 524 37,000  Level Denver Center
09:44PM 37.4617 -110.3408 68° East 457 526 37,000  Level Denver Center
09:45PM 37.5106 -110.1883 68° East 458 527 37,000  Level Denver Center
09:46PM 37.5617 -110.0239 69° East 454 522 37,000  Level Denver Center
09:47PM 37.6058 -109.8828 68° East 451 519 37,000  Level Denver Center
09:48PM 37.6589 -109.7175 68° East 454 522 37,000  Level Denver Center
09:49PM 37.7025 -109.5742 69° East 455 524 37,000  Level Denver Center
09:50PM 37.7467 -109.4306 69° East 457 526 37,000  Level Denver Center
09:51PM 37.7992 -109.2628 68° East 459 528 37,000  Level Denver Center
09:52PM 37.8425 -109.1189 69° East 456 525 37,000  Level Denver Center
09:53PM 37.8944 -108.9503 69° East 459 528 37,000  Level Denver Center
09:54PM 37.9372 -108.8056 69° East 458 527 37,000  Level Denver Center
09:55PM 37.9883 -108.6367 69° East 459 528 37,000  Level Denver Center
09:57PM 38.0317 -108.4928 69° East 455 524 37,000  Level Denver Center
09:58PM 38.0803 -108.3244 70° East 469 540 37,000  Level Denver Center
09:59PM 38.1228 -108.1797 69° East 463 533 37,000  Level Denver Center
10:00PM 38.1633 -108.0050 74° East 463 533 37,000  Level Denver Center
10:01PM 38.1872 -107.8750 77° East 468 539 37,000  Level Denver Center
10:02PM 38.2186 -107.6942 77° East 470 541 37,000  Level Denver Center
10:03PM 38.2592 -107.5161 74° East 469 540 37,000  Level Denver Center
10:04PM 38.3011 -107.3658 70° East 471 542 37,000  Level Denver Center
10:05PM 38.3436 -107.1886 73° East 469 540 37,000  Level Denver Center
10:06PM 38.3764 -107.0303 75° East 473 544 37,000  Level Denver Center
10:07PM 38.4117 -106.8694 74° East 474 545 37,000  Level Denver Center
10:08PM 38.4458 -106.7064 75° East 477 549 37,000  Level Denver Center
10:09PM 38.4800 -106.5447 75° East 475 547 37,000  Level Denver Center
10:10PM 38.5142 -106.3786 75° East 483 556 37,000  Level Denver Center
10:11PM 38.5547 -106.1808 75° East 482 555 37,000  Level Denver Center
10:12PM 38.5847 -106.0414 75° East 487 560 37,000  Level Denver Center
10:13PM 38.6264 -105.8386 75° East 482 555 37,000  Level Denver Center
10:14PM 38.6594 -105.6744 75° East 480 552 37,000  Level Denver Center
10:15PM 38.6931 -105.5106 75° East 479 551 37,000  Level Denver Center
10:16PM 38.7253 -105.3464 76° East 479 551 37,000  Level Denver Center
10:17PM 38.7578 -105.1817 76° East 479 551 37,000  Level Denver Center
10:18PM 38.7889 -105.0172 76° East 478 550 37,000  Level Denver Center
10:19PM 38.8281 -104.8189 76° East 482 555 37,000  Level Denver Center
10:20PM 38.8600 -104.6525 76° East 483 556 37,000  Level Denver Center
10:21PM 38.8925 -104.4883 76° East 480 552 37,000  Level Denver Center
10:22PM 38.9233 -104.3211 77° East 484 557 37,000  Level Denver Center
10:23PM 38.9558 -104.1525 76° East 490 564 37,000  Level Denver Center
10:24PM 38.9867 -103.9858 77° East 485 558 37,000  Level Denver Center
10:25PM 39.0239 -103.7844 77° East 485 558 37,000  Level Denver Center
10:26PM 39.0542 -103.6178 77° East 483 556 37,000  Level Denver Center
10:27PM 39.0847 -103.4481 77° East 488 562 37,000  Level Denver Center
10:28PM 39.1153 -103.2797 77° East 485 558 37,000  Level Denver Center
10:29PM 39.1461 -103.1139 76° East 478 550 37,000  Level Denver Center
10:30PM 39.1744 -102.9447 78° East 484 557 37,000  Level Denver Center
10:31PM 39.2100 -102.7442 77° East 480 552 37,000  Level Denver Center
10:33PM 39.2383 -102.5756 78° East 487 560 37,000  Level Denver Center
10:34PM 39.2711 -102.3864 77° East 486 559 37,000  Level Denver Center
10:35PM 39.3028 -102.1983 78° East 481 554 37,000  Level Denver Center
10:36PM 39.3325 -102.0228 78° East 480 552 37,000  Level Denver Center
10:37PM 39.3597 -101.8636 77° East 477 549 37,000  Level Denver Center
10:38PM 39.3914 -101.6783 77° East 474 545 37,000  Level Denver Center
10:39PM 39.4414 -101.5347 66° East 459 528 37,000  Level Denver Center
10:40PM 39.4983 -101.3664 66° East 457 526 37,000  Level Denver Center
10:41PM 39.5467 -101.2214 67° East 459 528 37,000  Level Denver Center
10:42PM 39.5939 -101.0747 67° East 462 532 37,000  Level Denver Center
10:43PM 39.6506 -100.9069 66° East 457 526 37,000  Level Denver Center
10:44PM 39.6969 -100.7622 67° East 455 524 37,000  Level Denver Center
10:45PM 39.7531 -100.5944 66° East 454 522 37,000  Level Denver Center
10:46PM 39.7994 -100.4481 68° East 457 526 37,000  Level Denver Center
10:47PM 39.8544 -100.2800 67° East 455 524 37,000  Level Denver Center
10:48PM 39.9056 -100.1192 67° East 456 525 37,000  Level Denver Center
10:49PM 39.9550 -99.9669 67° East 457 526 37,000  Level Denver Center
10:50PM 40.0033 -99.8133 68° East 459 528 37,000  Level Denver Center
10:51PM 40.0519 -99.6614 67° East 457 526 37,000  Level Denver Center
10:52PM 40.0997 -99.5086 68° East 455 524 37,000  Level Denver Center
10:53PM 40.1472 -99.3550 68° East 458 527 37,000  Level Denver Center
10:54PM 40.1947 -99.2028 68° East 454 522 37,000  Level Denver Center
10:56PM 40.2511 -99.0231 68° East 448 516 37,000  Level Denver Center
10:57PM 40.3053 -98.8417 69° East 447 514 37,000  Level Denver Center
10:58PM 40.3392 -98.6836 74° East 458 527 37,000  Level Denver Center
10:59PM 40.3694 -98.5239 76° East 457 526 37,000  Level Minneapolis Center
11:00PM 40.3986 -98.3617 77° East 459 528 37,000  Level Minneapolis Center
11:01PM 40.4269 -98.1994 77° East 460 529 37,000  Level Minneapolis Center
11:02PM 40.4564 -98.0375 77° East 459 528 37,000  Level Minneapolis Center
11:03PM 40.4839 -97.8758 77° East 456 525 37,000  Level Minneapolis Center
11:04PM 40.5128 -97.7144 77° East 456 525 37,000  Level Minneapolis Center
11:05PM 40.5403 -97.5533 77° East 454 522 37,000  Level Minneapolis Center
11:06PM 40.5681 -97.3936 77° East 451 519 37,000  Level Minneapolis Center
11:07PM 40.5994 -97.2106 77° East 452 520 37,000  Level Minneapolis Center
11:08PM 40.6261 -97.0519 77° East 448 516 37,000  Level Minneapolis Center
11:09PM 40.6533 -96.8942 77° East 444 511 37,000  Level Minneapolis Center
11:10PM 40.6783 -96.7356 78° East 445 512 37,000  Level Minneapolis Center
11:11PM 40.7050 -96.5778 77° East 443 510 37,000  Level Minneapolis Center
11:12PM 40.7308 -96.4189 78° East 445 512 37,000 60 Level Minneapolis Center
11:13PM 40.7569 -96.2600 78° East 446 513 37,200 540 Climbing Minneapolis Center
11:14PM 40.7825 -96.0969 78° East 453 521 38,100 840 Climbing Minneapolis Center
11:15PM 40.8131 -95.9031 78° East 453 521 39,000 420 Climbing Minneapolis Center
11:16PM 40.8394 -95.7408 78° East 455 524 39,000  Level Minneapolis Center
11:17PM 40.8647 -95.5758 78° East 460 529 39,000  Level Minneapolis Center
11:18PM 40.8908 -95.4106 78° East 461 531 39,000  Level Minneapolis Center
11:19PM 40.9158 -95.2483 78° East 457 526 39,000  Level Minneapolis Center
11:20PM 40.9403 -95.0833 79° East 458 527 39,000  Level Minneapolis Center
11:21PM 40.9647 -94.9183 79° East 458 527 39,000  Level Minneapolis Center
11:22PM 40.9894 -94.7556 79° East 455 524 39,000  Level Minneapolis Center
11:23PM 41.0125 -94.5897 80° East 458 527 39,000  Level Minneapolis Center
11:24PM 41.0369 -94.4203 79° East 456 525 39,000  Level Minneapolis Center
11:25PM 41.0600 -94.2567 79° East 454 522 39,000  Level Minneapolis Center
11:26PM 41.0842 -94.0931 79° East 456 525 39,000  Level Minneapolis Center
11:27PM 41.1100 -93.8972 80° East 453 521 39,000  Level Minneapolis Center
11:28PM 41.1350 -93.7319 79° East 456 525 39,000  Level Minneapolis Center
11:29PM 41.1564 -93.5683 80° East 456 525 39,000  Level Minneapolis Center
11:30PM 41.1794 -93.4019 80° East 457 526 39,000  Level Minneapolis Center
11:31PM 41.2028 -93.2353 79° East 460 529 39,000  Level Minneapolis Center
11:32PM 41.2236 -93.0697 80° East 458 527 39,000  Level Minneapolis Center
11:33PM 41.2458 -92.9042 80° East 458 527 39,000  Level Minneapolis Center
11:34PM 41.2675 -92.7375 80° East 459 528 39,000  Level Minneapolis Center
11:35PM 41.2883 -92.5717 80° East 459 528 39,000  Level Minneapolis Center
11:36PM 41.3097 -92.4069 80° East 456 525 39,000  Level Minneapolis Center
11:37PM 41.3306 -92.2414 80° East 455 524 39,000  Level Minneapolis Center
11:38PM 41.3550 -92.0425 81° East 457 526 39,000  Level Minneapolis Center
11:39PM 41.3739 -91.8783 81° East 455 524 39,000  Level Minneapolis Center
11:40PM 41.3972 -91.6986 80° East 455 524 39,000  Level Minneapolis Center
11:42PM 41.4197 -91.4981 81° East 454 522 39,000  Level Chicago Center
11:43PM 41.4392 -91.3342 81° East 455 524 39,000  Level Chicago Center
11:44PM 41.4600 -91.1533 81° East 459 528 39,000  Level Chicago Center
11:45PM 41.4781 -90.9869 82° East 457 526 39,000  Level Chicago Center
11:46PM 41.4967 -90.8217 81° East 452 520 39,000  Level Chicago Center
11:47PM 41.5158 -90.6539 81° East 455 524 39,000  Level Chicago Center
11:48PM 41.5339 -90.4881 82° East 454 522 39,000  Level Chicago Center
11:49PM 41.5514 -90.3200 82° East 455 524 39,000  Level Chicago Center
11:50PM 41.5686 -90.1536 82° East 451 519 39,000  Level Chicago Center
11:51PM 41.5867 -89.9861 82° East 453 521 39,000  Level Chicago Center
11:52PM 41.6053 -89.8172 82° East 456 525 39,000  Level Chicago Center
11:53PM 41.6211 -89.6497 83° East 454 522 39,000  Level Chicago Center
11:54PM 41.6375 -89.4911 82° East 456 525 39,000  Level Chicago Center
11:55PM 41.6536 -89.3244 83° East 452 520 39,000  Level Chicago Center
11:56PM 41.6731 -89.1233 83° East 457 526 39,000  Level Chicago Center
11:57PM 41.6883 -88.9567 83° East 455 524 39,000  Level Chicago Center
11:58PM 41.7042 -88.7872 83° East 461 531 39,000  Level Chicago Center
11:59PM 41.7197 -88.6203 83° East 456 525 39,000  Level Chicago Center
12:00AM 41.7353 -88.4522 83° East 457 526 39,000  Level Chicago Center
12:01AM 41.7500 -88.2836 83° East 457 526 39,000  Level Chicago Center
12:02AM 41.7650 -88.1131 83° East 460 529 39,000  Level Chicago Center
12:03AM 41.7803 -87.9400 83° East 465 535 39,000  Level Chicago Center
12:04AM 41.7942 -87.7675 84° East 466 536 39,000  Level Chicago Center
12:05AM 41.8075 -87.5950 84° East 466 536 39,000  Level Chicago Center
12:06AM 41.8217 -87.4217 84° East 469 540 39,000  Level Chicago Center
12:07AM 41.8372 -87.2492 83° East 469 540 39,000  Level Chicago Center
12:08AM 41.8506 -87.0761 84° East 470 541 39,000  Level Chicago Center
12:09AM 41.8639 -86.9022 84° East 470 541 39,000  Level Chicago Center
12:10AM 41.8764 -86.7275 84° East 472 543 39,000  Level Chicago Center
12:11AM 41.8883 -86.5508 85° East 474 545 39,000  Level Chicago Center
12:12AM 41.9008 -86.3783 84° East 466 536 39,000  Level Chicago Center
12:13AM 41.9133 -86.2042 84° East 467 537 39,000  Level Chicago Center
12:14AM 41.9256 -86.0292 85° East 469 540 39,000  Level Chicago Center
12:15AM 41.9375 -85.8564 85° East 464 534 39,000  Level Chicago Center
12:16AM 41.9492 -85.6808 85° East 467 537 39,000  Level Chicago Center
12:17AM 41.9617 -85.5042 85° East 471 542 39,000  Level Chicago Center
12:18AM 41.9728 -85.3261 85° East 473 544 39,000  Level Chicago Center
12:19AM 41.9842 -85.1467 85° East 478 550 39,000  Level Chicago Center
12:20AM 42.0008 -84.9547 83° East 488 562 39,000  Level Chicago Center
12:21AM 42.0233 -84.7739 80° East 492 566 39,000  Level Chicago Center
12:22AM 42.0439 -84.5947 81° East 488 562 39,000  Level Chicago Center
12:23AM 42.0636 -84.4164 81° East 485 558 39,000  Level Chicago Center
12:24AM 42.0844 -84.2364 81° East 488 562 39,000  Level Chicago Center
12:25AM 42.1075 -84.0194 82° East 490 564 39,000  Level Chicago Center
12:26AM 42.1269 -83.8381 82° East 491 565 39,000  Level Chicago Center
12:27AM 42.1464 -83.6561 82° East 491 565 39,000  Level Chicago Center
12:28AM 42.1653 -83.4733 82° East 493 567 39,000  Level Chicago Center
12:29AM 42.1847 -83.2892 82° East 497 572 39,000  Level Chicago Center
12:30AM 42.2042 -83.0611 83° East 507 583 39,000  Level Cleveland Center
12:31AM 42.2225 -82.8767 82° East 500 575 39,000  Level Cleveland Center
12:32AM 42.2408 -82.6894 82° East 500 575 39,000  Level Cleveland Center
12:33AM 42.2586 -82.4992 83° East 500 575 39,000  Level Cleveland Center
12:34AM 42.2764 -82.3119 83° East 500 575 39,000  Level Cleveland Center
12:35AM 42.2958 -82.1075 83° East 500 575 39,000  Level Cleveland Center
12:36AM 42.3150 -81.9114 82° East 507 583 39,000  Level Cleveland Center
12:37AM 42.3292 -81.7431 83° East 514 592 39,000  Level Cleveland Center
12:38AM 42.3478 -81.5553 82° East 506 582 39,000  Level Cleveland Center
12:39AM 42.3617 -81.3644 84° East 506 582 39,000  Level Cleveland Center
12:40AM 42.3794 -81.1733 83° East 506 582 39,000  Level Cleveland Center
12:41AM 42.3950 -80.9797 84° East 511 588 39,000  Level Cleveland Center
12:42AM 42.4122 -80.7689 84° East 511 588 39,000  Level Cleveland Center
12:43AM 42.4247 -80.5747 85° East 521 600 39,000  Level Cleveland Center
12:44AM 42.4414 -80.3861 83° East 516 594 39,000  Level Cleveland Center
12:45AM 42.4553 -80.1892 84° East 521 600 39,000  Level Cleveland Center
12:46AM 42.4711 -79.9978 84° East 520 598 39,000  Level Cleveland Center
12:47AM 42.4847 -79.8033 85° East 515 593 39,000  Level Cleveland Center
12:48AM 42.4958 -79.6117 85° East 515 593 39,000  Level Cleveland Center
12:49AM 42.5128 -79.4200 83° East 520 598 39,000  Level Cleveland Center
12:50AM 42.5231 -79.2253 86° East 520 598 39,000  Level Cleveland Center
12:51AM 42.5372 -79.0306 84° East 520 598 39,000  Level Cleveland Center
12:52AM 42.5492 -78.8358 85° East 520 598 39,000  Level Cleveland Center
12:53AM 42.5606 -78.6411 85° East 520 598 39,000  Level Cleveland Center
12:54AM 42.5717 -78.4461 86° East 520 598 39,000  Level Cleveland Center
12:55AM 42.5825 -78.2539 86° East 520 598 39,000  Level Cleveland Center
12:56AM 42.5931 -78.0561 86° East 520 598 39,000  Level Cleveland Center
12:57AM 42.6033 -77.8667 86° East 514 592 39,000  Level Cleveland Center
12:58AM 42.6153 -77.6714 85° East 514 592 39,000  Level Cleveland Center
12:59AM 42.6228 -77.4792 87° East 514 592 39,000  Level Cleveland Center
01:02AM 42.6419 -77.0614 86° East 506 582 39,000  Level Boston Center
01:03AM 42.6517 -76.8700 86° East 506 582 39,000  Level Boston Center
01:04AM 42.6589 -76.6786 87° East 506 582 39,000  Level Boston Center
01:05AM 42.6681 -76.4869 86° East 506 582 39,000 -120 Level Boston Center
01:06AM 42.6769 -76.2897 86° East 511 588 38,800 -1,800 Descending Boston Center
01:07AM 42.6867 -76.0558 87° East 511 588 35,100 -3,180 Descending Boston Center
01:08AM 42.6908 -75.8611 88° East 511 588 31,900 -3,180 Descending Boston Center
01:09AM 42.7006 -75.6639 86° East 511 588 28,800 -3,000 Descending Boston Center
01:10AM 42.7039 -75.4692 89° East 511 588 25,900 -2,400 Descending Boston Center
01:11AM 42.7128 -75.2886 86° East 499 574 24,000 -2,580 Descending Boston Center
01:12AM 42.7150 -75.1106 89° East 476 548 20,800 -3,000 Descending Boston Center
01:13AM 42.7208 -74.9414 87° East 458 527 18,000 -2,880 Descending Boston Center
01:14AM 42.7269 -74.7606 87° East 443 510 15,100 -2,580 Descending Boston Center
01:15AM 42.7297 -74.6194 88° East 419 482 12,900 -1,980 Descending Boston Center
01:16AM 42.7350 -74.4472 88° East 380 437 11,000 -960 Descending Boston Center
01:17AM 42.7367 -74.3453 89° East 346 398 11,000 -1,080 Level Boston Center
01:18AM 42.7386 -74.2211 89° East 301 346 9,000 -1,680 Descending Boston Center
01:19AM 42.7547 -74.1253 77° East 291 335 7,700 -1,560 Descending Boston Center
01:20AM 42.8225 -74.0508 39° Northeast 267 307 5,900 -1,920 Descending Boston Center
01:21AM 42.8633 -73.9669 56° Northeast 267 307 3,900 -1,500 Descending Boston Center
01:22AM 42.8647 -73.8622 89° East 256 295 3,000 -840 Descending Boston Center
01:23AM 42.8422 -73.8078 119° Southeast 192 221 2,300 -360 Descending Boston Center
01:24AM 42.8328 -73.7425 101° East 192 221 2,300  Level Boston Center